Time;durP1;ratioP1;P1;durP2;ratioP2;P2;SDS_P1;SDS_P2;PMS_P1;PMS_P2;Temp;Humidity;BMP_temperature;BMP_pressure;BME280_temperature;BME280_humidity;BME280_pressure;Samples;Min_cycle;Max_cycle;Signal;HPM_P1;HPM_P2
2023/12/03 00:01:07;;;;;;;13.02;7.28;;;;;;;-1.54;75.22;92573.34;2048268;70;20176;-80
2023/12/03 00:03:34;;;;;;;10.75;6.88;;;;;;;-1.56;75.23;92575.88;2048039;70;20141;-80
2023/12/03 00:05:59;;;;;;;12.40;7.38;;;;;;;-1.56;74.56;92579.41;2046130;70;20146;-78
2023/12/03 00:08:25;;;;;;;12.02;6.75;;;;;;;-1.51;74.43;92583.34;2047822;70;20134;-78
2023/12/03 00:10:51;;;;;;;12.48;7.20;;;;;;;-1.53;74.60;92588.63;2051153;70;20164;-79
2023/12/03 00:13:17;;;;;;;11.18;6.72;;;;;;;-1.61;74.62;92588.53;2051135;70;20162;-80
2023/12/03 00:15:42;;;;;;;10.57;6.10;;;;;;;-1.72;74.47;92590.81;2051066;70;20142;-80
2023/12/03 00:18:08;;;;;;;8.27;4.93;;;;;;;-1.69;74.92;92598.78;2047835;70;20166;-80
2023/12/03 00:20:34;;;;;;;10.30;6.00;;;;;;;-1.73;75.20;92592.09;2051030;70;20158;-79
2023/12/03 00:22:59;;;;;;;9.85;5.78;;;;;;;-1.70;75.03;92607.56;2051025;70;20150;-80
2023/12/03 00:25:25;;;;;;;9.50;5.63;;;;;;;-1.71;74.92;92612.34;2050990;70;20170;-79
2023/12/03 00:27:52;;;;;;;9.77;5.40;;;;;;;-1.72;75.01;92613.63;2051120;70;20172;-79
2023/12/03 00:30:18;;;;;;;8.68;5.60;;;;;;;-1.64;75.37;92614.47;2050983;70;20160;-79
2023/12/03 00:32:44;;;;;;;11.13;6.18;;;;;;;-1.68;74.93;92618.84;2047772;70;20702;-79
2023/12/03 00:35:11;;;;;;;9.50;5.85;;;;;;;-1.68;75.34;92608.53;2051029;70;20174;-80
2023/12/03 00:37:37;;;;;;;9.02;5.05;;;;;;;-1.62;75.26;92619.44;2051029;70;20654;-79
2023/12/03 00:40:03;;;;;;;10.20;6.07;;;;;;;-1.96;76.01;92625.66;2051086;70;20245;-79
2023/12/03 00:42:28;;;;;;;11.10;6.45;;;;;;;-1.86;75.42;92629.47;2047561;70;20166;-78
2023/12/03 00:44:54;;;;;;;11.80;6.28;;;;;;;-1.90;75.82;92634.56;2050846;70;20151;-79
2023/12/03 00:47:20;;;;;;;12.20;6.57;;;;;;;-1.72;75.64;92634.97;2049629;70;20595;-78
2023/12/03 00:49:45;;;;;;;12.60;6.78;;;;;;;-1.75;74.84;92639.53;2050759;70;20181;-78
2023/12/03 00:52:11;;;;;;;12.43;6.68;;;;;;;-1.73;75.11;92645.28;2050733;70;20607;-79
2023/12/03 00:54:37;;;;;;;10.60;6.50;;;;;;;-1.64;74.69;92652.38;2051205;70;20170;-79
2023/12/03 00:57:03;;;;;;;10.98;6.43;;;;;;;-1.70;74.64;92648.97;2051487;70;20296;-79
2023/12/03 00:59:28;;;;;;;10.25;6.13;;;;;;;-1.65;73.94;92659.16;2051694;70;20158;-78
2023/12/03 01:01:54;;;;;;;10.00;6.07;;;;;;;-1.72;73.66;92651.53;2045251;70;20157;-78
2023/12/03 01:04:20;;;;;;;11.25;6.60;;;;;;;-1.77;73.98;92658.66;2049779;70;20261;-79
2023/12/03 01:06:45;;;;;;;9.77;6.40;;;;;;;-1.78;73.82;92653.66;2051231;70;20166;-78
2023/12/03 01:09:11;;;;;;;10.50;6.00;;;;;;;-1.78;73.91;92662.69;2051377;70;20138;-78
2023/12/03 01:11:41;;;;;;;10.52;5.90;;;;;;;-1.76;73.99;92673.19;2048346;70;20174;-79
2023/12/03 01:14:06;;;;;;;11.65;6.65;;;;;;;-1.83;73.54;92674.59;2051478;70;20143;-79
2023/12/03 01:16:32;;;;;;;10.90;6.35;;;;;;;-1.83;73.83;92683.59;2051415;70;20149;-79
2023/12/03 01:18:58;;;;;;;12.52;6.18;;;;;;;-1.87;74.39;92677.66;2051531;70;20135;-79
2023/12/03 01:21:25;;;;;;;8.98;5.57;;;;;;;-1.93;74.61;92671.47;2051458;70;20138;-80
2023/12/03 01:23:51;;;;;;;11.10;6.40;;;;;;;-1.90;74.92;92684.22;2048191;70;20247;-80
2023/12/03 01:26:18;;;;;;;9.35;5.72;;;;;;;-1.88;74.75;92692.72;2051506;70;20168;-79
2023/12/03 01:28:46;;;;;;;13.05;6.80;;;;;;;-1.87;74.54;92705.25;2051556;70;20178;-80
2023/12/03 01:31:12;;;;;;;11.48;6.18;;;;;;;-1.87;74.51;92704.50;2045516;70;20237;-79
2023/12/03 01:33:37;;;;;;;11.45;6.38;;;;;;;-1.85;74.51;92707.47;2051486;70;20177;-80
2023/12/03 01:36:03;;;;;;;10.38;6.65;;;;;;;-1.74;74.28;92710.03;2051297;70;20154;-80
2023/12/03 01:38:29;;;;;;;10.57;6.43;;;;;;;-1.76;73.92;92712.56;2047475;70;20190;-79
2023/12/03 01:40:54;;;;;;;12.05;6.00;;;;;;;-1.72;74.17;92712.25;2051090;70;20150;-79
2023/12/03 01:43:20;;;;;;;10.77;6.05;;;;;;;-1.68;74.12;92718.19;2051330;70;20150;-79
2023/12/03 01:45:46;;;;;;;10.57;6.30;;;;;;;-1.73;74.67;92719.78;2051476;70;20142;-79
2023/12/03 01:48:12;;;;;;;9.90;6.00;;;;;;;-1.75;74.68;92721.59;2047952;70;20629;-79
2023/12/03 01:50:39;;;;;;;13.00;6.88;;;;;;;-1.77;74.32;92724.88;2051489;70;20626;-79
2023/12/03 01:53:07;;;;;;;11.38;6.45;;;;;;;-1.79;74.79;92727.41;2047905;70;20138;-79
2023/12/03 01:55:34;;;;;;;10.18;6.13;;;;;;;-1.76;74.79;92737.41;2051377;70;20230;-80
2023/12/03 01:58:00;;;;;;;11.25;6.70;;;;;;;-1.69;74.74;92733.28;2051185;70;20233;-80
2023/12/03 02:00:26;;;;;;;11.02;6.25;;;;;;;-1.60;74.64;92732.84;2051221;70;20180;-80
2023/12/03 02:02:51;;;;;;;12.18;6.47;;;;;;;-2.16;75.88;92742.88;2051269;70;20161;-79
2023/12/03 02:05:17;;;;;;;12.20;6.35;;;;;;;-1.89;75.98;92738.13;2051090;70;20174;-79
2023/12/03 02:07:43;;;;;;;12.57;6.35;;;;;;;-1.84;75.03;92739.31;2051272;70;20179;-79
2023/12/03 02:10:08;;;;;;;12.30;6.90;;;;;;;-1.86;74.32;92731.56;2048089;70;20177;-79
2023/12/03 02:12:34;;;;;;;11.27;6.55;;;;;;;-1.88;74.92;92742.41;2051436;70;20660;-79
2023/12/03 02:15:00;;;;;;;11.43;6.65;;;;;;;-1.84;74.89;92745.56;2051203;70;20157;-80
2023/12/03 02:17:26;;;;;;;12.07;6.43;;;;;;;-1.74;75.02;92750.66;2051426;70;20150;-80
2023/12/03 02:19:51;;;;;;;11.73;6.43;;;;;;;-1.78;75.12;92753.75;2051561;70;20217;-80
2023/12/03 02:22:17;;;;;;;10.27;6.50;;;;;;;-1.75;75.17;92752.69;2051125;70;20166;-79
2023/12/03 02:24:43;;;;;;;13.55;7.20;;;;;;;-1.69;75.34;92760.88;2048056;70;20568;-80
2023/12/03 02:27:08;;;;;;;10.60;6.60;;;;;;;-1.74;75.25;92762.47;2047998;70;20123;-80
2023/12/03 02:29:34;;;;;;;12.95;6.95;;;;;;;-1.87;75.83;92765.97;2047830;70;20683;-80
2023/12/03 02:31:59;;;;;;;11.68;6.95;;;;;;;-1.77;75.59;92765.53;2047817;70;20161;-80
2023/12/03 02:34:25;;;;;;;11.70;6.97;;;;;;;-1.65;75.37;92772.34;2051211;70;20162;-80
2023/12/03 02:36:51;;;;;;;13.48;8.10;;;;;;;-1.56;74.95;92778.19;2047915;70;20595;-79
2023/12/03 02:39:17;;;;;;;12.20;7.10;;;;;;;-1.65;75.32;92772.34;2051225;70;20173;-79
2023/12/03 02:41:42;;;;;;;13.98;7.35;;;;;;;-1.82;76.02;92772.66;2047800;70;20208;-79
2023/12/03 02:44:08;;;;;;;14.70;7.38;;;;;;;-1.87;76.62;92784.53;2050562;70;20153;-79
2023/12/03 02:46:33;;;;;;;13.27;7.13;;;;;;;-2.26;76.92;92761.09;2048015;70;20157;-79
2023/12/03 02:48:59;;;;;;;11.50;6.50;;;;;;;-1.79;76.42;92790.91;2051214;70;20205;-79
2023/12/03 02:51:25;;;;;;;11.27;7.25;;;;;;;-2.10;76.50;92786.94;2051050;70;20139;-79
2023/12/03 02:53:51;;;;;;;11.35;7.05;;;;;;;-1.87;76.67;92782.53;2047847;70;20162;-79
2023/12/03 02:56:17;;;;;;;11.20;6.85;;;;;;;-1.67;75.69;92794.22;2051121;70;20181;-78
2023/12/03 02:58:43;;;;;;;13.60;7.53;;;;;;;-1.61;75.18;92795.59;2047935;70;20169;-78
2023/12/03 03:01:09;;;;;;;13.00;7.25;;;;;;;-1.73;75.47;92801.84;2049700;70;20607;-79
2023/12/03 03:03:35;;;;;;;12.93;7.05;;;;;;;-1.65;75.35;92803.47;2047706;70;20174;-78
2023/12/03 03:06:00;;;;;;;11.57;7.05;;;;;;;-1.64;75.55;92809.72;2050064;70;20602;-78
2023/12/03 03:08:26;;;;;;;12.43;7.15;;;;;;;-2.06;76.53;92792.88;2052845;70;20150;-79
2023/12/03 03:10:52;;;;;;;14.65;7.38;;;;;;;-1.85;76.32;92806.81;2053588;70;20158;-79
2023/12/03 03:13:17;;;;;;;15.35;7.20;;;;;;;-1.85;75.90;92810.31;2054151;70;20188;-79
2023/12/03 03:15:43;;;;;;;11.25;7.05;;;;;;;-1.93;76.34;92811.47;2051098;70;20146;-79
2023/12/03 03:18:09;;;;;;;12.85;7.72;;;;;;;-1.96;76.59;92807.03;2054320;70;20158;-80
2023/12/03 03:20:34;;;;;;;12.60;7.28;;;;;;;-2.27;77.31;92814.03;2054439;70;20304;-79
2023/12/03 03:23:00;;;;;;;11.50;6.68;;;;;;;-1.92;76.05;92821.25;2054653;70;20226;-79
2023/12/03 03:25:26;;;;;;;12.57;7.00;;;;;;;-2.13;75.59;92824.56;2051165;70;20591;-79
2023/12/03 03:27:55;;;;;;;10.57;6.72;;;;;;;-2.10;75.50;92823.53;2054234;70;20281;-79
2023/12/03 03:30:21;;;;;;;11.05;6.65;;;;;;;-1.84;75.50;92831.13;2053219;70;20619;-79
2023/12/03 03:32:46;;;;;;;11.20;6.25;;;;;;;-1.67;75.25;92821.81;2054350;70;20193;-79
2023/12/03 03:35:12;;;;;;;11.75;6.95;;;;;;;-1.69;74.79;92829.91;2051208;70;20142;-80
2023/12/03 03:37:38;;;;;;;11.98;6.80;;;;;;;-1.64;74.33;92829.78;2054574;70;20173;-79
2023/12/03 03:40:04;;;;;;;13.23;7.38;;;;;;;-1.63;74.36;92827.78;2054401;70;20161;-79
2023/12/03 03:42:30;;;;;;;13.10;7.05;;;;;;;-1.73;74.82;92835.72;2054399;70;20158;-80
2023/12/03 03:44:55;;;;;;;13.10;6.80;;;;;;;-1.92;74.73;92794.41;2054371;70;20530;-79
2023/12/03 03:47:21;;;;;;;11.00;6.50;;;;;;;-1.60;74.61;92829.47;2054443;70;20237;-80
2023/12/03 03:49:46;;;;;;;11.68;6.50;;;;;;;-1.62;74.73;92840.28;2054514;70;20518;-80
2023/12/03 03:52:12;;;;;;;11.57;6.75;;;;;;;-1.55;74.21;92843.19;2054344;70;20240;-80
2023/12/03 03:54:44;;;;;;;14.05;7.45;;;;;;;-1.80;74.80;92850.13;2051174;70;20579;-80
2023/12/03 03:57:09;;;;;;;12.60;7.95;;;;;;;-1.76;75.08;92855.34;2054400;70;20514;-79
2023/12/03 03:59:35;;;;;;;13.50;7.85;;;;;;;-1.91;75.30;92853.09;2054357;70;20586;-80
2023/12/03 04:02:01;;;;;;;12.60;6.80;;;;;;;-1.91;74.52;92864.88;2051388;70;20306;-79
2023/12/03 04:04:26;;;;;;;12.38;7.32;;;;;;;-1.86;74.94;92872.31;2047296;70;20176;-78
2023/12/03 04:06:52;;;;;;;14.70;7.70;;;;;;;-2.27;75.47;92878.19;2047351;70;20174;-78
2023/12/03 04:09:18;;;;;;;15.23;7.75;;;;;;;-2.04;76.06;92884.13;2052658;70;20244;-79
2023/12/03 04:11:45;;;;;;;14.02;7.22;;;;;;;-1.75;75.19;92874.13;2054234;70;20162;-78
2023/12/03 04:14:15;;;;;;;12.18;6.90;;;;;;;-1.65;74.50;92886.28;2054363;70;20610;-78
2023/12/03 04:16:41;;;;;;;13.27;7.60;;;;;;;-1.67;74.76;92888.06;2054340;70;20550;-79
2023/12/03 04:19:06;;;;;;;13.35;7.35;;;;;;;-1.61;74.43;92883.94;2054215;70;20158;-79
2023/12/03 04:21:32;;;;;;;13.43;7.25;;;;;;;-1.73;74.21;92879.88;2050915;70;20146;-78
2023/12/03 04:23:58;;;;;;;10.32;6.28;;;;;;;-1.76;74.48;92872.66;2054245;70;20162;-79
2023/12/03 04:26:26;;;;;;;12.65;7.30;;;;;;;-1.58;73.72;92876.63;2054354;70;20164;-79
2023/12/03 04:28:52;;;;;;;11.18;6.93;;;;;;;-1.64;73.68;92884.25;2054731;70;20142;-79
2023/12/03 04:31:27;;;;;;;14.32;7.22;;;;;;;-1.60;74.15;92887.47;2054529;70;20161;-78
2023/12/03 04:33:55;;;;;;;11.73;6.95;;;;;;;-1.70;73.68;92880.84;2054741;70;20170;-78
2023/12/03 04:36:24;;;;;;;11.25;6.53;;;;;;;-1.70;74.10;92891.88;2054713;70;20150;-79
2023/12/03 04:38:51;;;;;;;15.15;7.15;;;;;;;-1.72;74.14;92883.38;2054562;70;20150;-79
2023/12/03 04:41:16;;;;;;;14.30;7.15;;;;;;;-1.63;73.80;92894.03;2051434;70;20657;-79
2023/12/03 04:43:42;;;;;;;11.50;7.00;;;;;;;-1.64;74.10;92893.28;2054687;70;20256;-79
2023/12/03 04:46:08;;;;;;;11.38;6.65;;;;;;;-1.72;74.23;92888.91;2054745;70;20185;-79
2023/12/03 04:48:34;;;;;;;9.93;6.30;;;;;;;-1.86;73.30;92899.16;2054712;70;20518;-79
2023/12/03 04:51:01;;;;;;;11.88;6.63;;;;;;;-1.82;73.78;92899.59;2054544;70;20831;-78
2023/12/03 04:53:26;;;;;;;10.55;6.80;;;;;;;-1.73;73.56;92890.94;2054640;70;20590;-79
2023/12/03 04:55:52;;;;;;;11.73;7.20;;;;;;;-1.91;73.41;92895.22;2054744;70;20149;-79
2023/12/03 04:58:18;;;;;;;11.60;7.18;;;;;;;-2.14;73.87;92900.31;2054750;70;20165;-79
2023/12/03 05:00:43;;;;;;;9.38;5.85;;;;;;;-2.45;74.19;92887.22;2054789;70;20154;-80
2023/12/03 05:03:09;;;;;;;9.90;6.10;;;;;;;-2.11;74.15;92912.31;2054882;70;20311;-80
2023/12/03 05:05:34;;;;;;;9.20;5.72;;;;;;;-2.05;72.77;92916.50;2054802;70;20220;-80
2023/12/03 05:08:03;;;;;;;10.80;6.70;;;;;;;-1.99;72.64;92913.66;2054895;70;20218;-80
2023/12/03 05:10:29;;;;;;;9.73;5.70;;;;;;;-2.05;72.12;92915.75;2055010;70;20592;-80
2023/12/03 05:12:55;;;;;;;11.18;6.43;;;;;;;-1.85;72.64;92923.47;2054980;70;20153;-80
2023/12/03 05:15:21;;;;;;;10.60;6.07;;;;;;;-1.81;72.38;92928.69;2050301;70;20142;-80
2023/12/03 05:17:47;;;;;;;12.25;5.82;;;;;;;-1.84;71.81;92936.00;2055079;70;20224;-80
2023/12/03 05:20:12;;;;;;;9.90;5.80;;;;;;;-1.84;72.51;92932.47;2054897;70;20158;-80
2023/12/03 05:22:39;;;;;;;10.68;6.43;;;;;;;-1.95;71.98;92935.44;2054667;70;20144;-80
2023/12/03 05:25:07;;;;;;;10.55;6.20;;;;;;;-2.24;72.71;92939.84;2054876;70;20252;-80
2023/12/03 05:27:33;;;;;;;13.15;6.88;;;;;;;-2.42;74.01;92942.09;2054860;69;20157;-79
2023/12/03 05:30:05;;;;;;;10.50;6.35;;;;;;;-2.05;73.41;92935.06;2054795;70;20158;-80
2023/12/03 05:32:30;;;;;;;12.43;6.57;;;;;;;-1.98;73.04;92948.25;2051516;70;20233;-80
2023/12/03 05:34:56;;;;;;;11.27;6.22;;;;;;;-1.97;73.36;92947.00;2054856;70;20146;-80
2023/12/03 05:37:22;;;;;;;11.57;6.57;;;;;;;-2.15;72.90;92954.00;2054682;70;20148;-80
2023/12/03 05:39:48;;;;;;;16.13;6.60;;;;;;;-2.27;73.70;92951.91;2048325;70;20521;-80
2023/12/03 05:42:14;;;;;;;13.75;7.63;;;;;;;-2.46;73.90;92965.69;2054937;70;20586;-81
2023/12/03 05:44:40;;;;;;;12.05;6.95;;;;;;;-2.77;73.60;92951.28;2054771;70;20140;-80
2023/12/03 05:47:05;;;;;;;12.77;6.82;;;;;;;-2.27;73.33;92949.91;2054574;70;20154;-80
2023/12/03 05:49:31;;;;;;;11.65;6.80;;;;;;;-2.14;73.39;92954.75;2054835;70;20150;-80
2023/12/03 05:51:56;;;;;;;12.77;6.85;;;;;;;-2.03;72.88;92953.84;2054793;70;20149;-79
2023/12/03 05:54:25;;;;;;;10.85;6.70;;;;;;;-1.97;72.92;92958.03;2054780;70;20499;-80
2023/12/03 05:56:51;;;;;;;12.10;6.63;;;;;;;-2.06;72.02;92969.44;2054779;70;20143;-80
2023/12/03 05:59:16;;;;;;;12.35;6.55;;;;;;;-2.07;72.19;92976.97;2051511;70;20201;-80
2023/12/03 06:01:42;;;;;;;10.85;6.45;;;;;;;-1.96;72.73;92969.81;2054839;70;20225;-80
2023/12/03 06:04:08;;;;;;;12.38;7.25;;;;;;;-1.95;71.78;92979.56;2054713;69;20182;-80
2023/12/03 06:06:35;;;;;;;11.93;6.80;;;;;;;-2.04;71.99;92977.94;2054636;70;20577;-80
2023/12/03 06:09:01;;;;;;;13.57;7.00;;;;;;;-2.58;72.49;92985.13;2054764;70;20137;-80
2023/12/03 06:11:32;;;;;;;14.60;7.75;;;;;;;-2.29;72.68;92985.53;2054810;70;20154;-80
2023/12/03 06:13:58;;;;;;;15.70;9.27;;;;;;;-2.64;73.03;92997.47;2054772;69;20188;-80
2023/12/03 06:16:23;;;;;;;14.82;7.70;;;;;;;-2.26;72.74;93003.78;2054843;70;20138;-79
2023/12/03 06:18:50;;;;;;;11.13;6.03;;;;;;;-2.37;72.58;93009.47;2054700;70;20154;-81
2023/12/03 06:21:16;;;;;;;12.55;6.95;;;;;;;-2.19;71.91;93013.50;2054672;70;20165;-80
2023/12/03 06:23:42;;;;;;;14.55;6.95;;;;;;;-2.19;71.63;93022.53;2054611;70;20146;-80
2023/12/03 06:26:08;;;;;;;12.98;6.90;;;;;;;-2.22;71.84;93018.03;2054719;70;20273;-80
2023/12/03 06:28:33;;;;;;;12.90;7.60;;;;;;;-2.23;71.36;93016.56;2054712;70;20221;-80
2023/12/03 06:31:00;;;;;;;11.68;6.78;;;;;;;-2.22;71.40;93014.53;2054690;70;20153;-80
2023/12/03 06:33:25;;;;;;;25.98;13.93;;;;;;;-2.56;72.17;93026.72;2054730;70;20169;-80
2023/12/03 06:35:53;;;;;;;25.83;12.15;;;;;;;-2.86;73.01;93026.03;2054591;70;20591;-80
2023/12/03 06:38:19;;;;;;;21.30;11.07;;;;;;;-2.77;73.26;93028.44;2054756;70;20240;-80
2023/12/03 06:40:45;;;;;;;28.25;15.48;;;;;;;-2.49;72.80;93027.38;2054896;70;20676;-80
2023/12/03 06:43:11;;;;;;;22.77;11.75;;;;;;;-2.43;72.03;93039.09;2054756;70;20153;-80
2023/12/03 06:45:37;;;;;;;17.17;8.95;;;;;;;-2.48;72.20;93032.38;2054671;70;20171;-80
2023/12/03 06:48:04;;;;;;;12.18;7.07;;;;;;;-2.46;72.65;93035.38;2054798;70;20502;-78
2023/12/03 06:50:29;;;;;;;10.55;5.78;;;;;;;-2.50;72.21;93045.19;2054663;70;20150;-79
2023/12/03 06:52:56;;;;;;;12.50;6.63;;;;;;;-2.60;72.06;93048.31;2054515;70;20582;-80
2023/12/03 06:55:23;;;;;;;11.52;6.70;;;;;;;-2.62;72.34;93050.06;2054657;70;20525;-80
2023/12/03 06:57:48;;;;;;;13.85;7.00;;;;;;;-2.72;73.08;93048.94;2054687;70;20145;-80
2023/12/03 07:00:14;;;;;;;11.82;6.68;;;;;;;-2.69;73.04;93053.41;2054628;70;20170;-79
2023/12/03 07:02:40;;;;;;;14.18;7.55;;;;;;;-2.80;73.03;93048.75;2054741;70;20150;-80
2023/12/03 07:05:06;;;;;;;11.88;7.32;;;;;;;-2.74;73.16;93051.47;2054499;69;20181;-80
2023/12/03 07:07:31;;;;;;;13.52;8.25;;;;;;;-2.83;73.04;93060.81;2054750;70;20146;-80
2023/12/03 07:09:57;;;;;;;13.10;8.18;;;;;;;-2.83;72.91;93067.06;2054627;70;20158;-80
2023/12/03 07:12:22;;;;;;;14.07;7.82;;;;;;;-2.86;72.51;93067.34;2054774;70;20142;-82
2023/12/03 07:14:48;;;;;;;13.25;7.20;;;;;;;-3.00;72.95;93071.22;2054669;69;20260;-83
2023/12/03 07:17:14;;;;;;;13.35;7.30;;;;;;;-3.12;72.17;93076.81;2054834;70;20142;-82
2023/12/03 07:19:46;;;;;;;12.23;6.80;;;;;;;-3.17;72.25;93076.88;2054642;70;20146;-81
2023/12/03 07:22:12;;;;;;;12.63;7.28;;;;;;;-3.23;72.35;93085.19;2054508;70;20150;-82
2023/12/03 07:24:39;;;;;;;11.35;7.03;;;;;;;-3.26;72.46;93088.94;2054660;70;20181;-83
2023/12/03 07:27:05;;;;;;;11.68;7.07;;;;;;;-3.25;72.48;93086.94;2054618;69;20142;-83
2023/12/03 07:29:31;;;;;;;14.05;7.32;;;;;;;-3.25;72.04;93104.25;2054683;70;20149;-82
2023/12/03 07:32:00;;;;;;;13.15;6.93;;;;;;;-3.47;72.53;93109.88;2054586;70;20146;-83
2023/12/03 07:34:27;;;;;;;13.80;8.25;;;;;;;-3.37;72.87;93111.06;2054548;70;20157;-84
2023/12/03 07:36:53;;;;;;;12.70;7.47;;;;;;;-3.40;72.91;93101.06;2051233;70;20296;-79
2023/12/03 07:39:19;;;;;;;13.57;7.53;;;;;;;-3.40;72.92;93101.06;2051319;70;20164;-79
2023/12/03 07:41:52;;;;;;;24.85;13.30;;;;;;;-3.48;73.19;93100.13;2051278;70;20154;-78
2023/12/03 07:44:18;;;;;;;25.42;13.35;;;;;;;-3.41;72.53;93100.31;2051278;70;20252;-78
2023/12/03 07:46:44;;;;;;;23.13;11.77;;;;;;;-3.49;72.70;93101.38;2054518;70;20141;-79
2023/12/03 07:49:10;;;;;;;28.80;13.43;;;;;;;-3.61;72.21;93108.97;2054556;70;20172;-78
2023/12/03 07:51:35;;;;;;;39.20;15.73;;;;;;;-3.66;72.55;93107.00;2054484;70;20140;-80
2023/12/03 07:54:01;;;;;;;28.02;12.27;;;;;;;-3.58;72.57;93118.94;2054512;70;20494;-82
2023/12/03 07:56:38;;;;;;;30.10;12.57;;;;;;;-3.55;72.54;93123.44;2054471;70;20161;-81
2023/12/03 07:59:04;;;;;;;37.28;16.08;;;;;;;-3.59;71.75;93123.69;2054682;70;20148;-81
2023/12/03 08:01:29;;;;;;;48.35;19.00;;;;;;;-3.52;72.32;93130.69;2054409;70;20517;-81
2023/12/03 08:03:57;;;;;;;47.42;20.38;;;;;;;-3.59;71.74;93125.72;2054699;69;20154;-82
2023/12/03 08:06:23;;;;;;;33.15;16.20;;;;;;;-3.67;72.08;93119.25;2054884;70;20174;-80
2023/12/03 08:08:48;;;;;;;25.67;12.02;;;;;;;-3.63;71.90;93122.47;2054965;70;20517;-78
2023/12/03 08:11:14;;;;;;;24.50;10.98;;;;;;;-3.60;71.66;93122.22;2054966;70;20150;-83
2023/12/03 08:13:41;;;;;;;23.00;10.45;;;;;;;-3.64;71.90;93123.75;2056060;70;20125;-81
2023/12/03 08:16:08;;;;;;;27.77;12.77;;;;;;;-3.69;71.49;93125.25;2054979;70;20197;-81
2023/12/03 08:18:34;;;;;;;20.20;10.02;;;;;;;-3.63;71.17;93136.25;2054970;70;20598;-81
2023/12/03 08:20:59;;;;;;;20.63;9.43;;;;;;;-3.63;71.47;93139.72;2055004;69;20169;-77
2023/12/03 08:23:26;;;;;;;17.83;8.90;;;;;;;-3.56;71.57;93143.22;2054894;70;20154;-85
2023/12/03 08:25:52;;;;;;;25.92;12.18;;;;;;;-3.65;71.26;93142.25;2055045;70;20192;-77
2023/12/03 08:28:18;;;;;;;34.60;16.23;;;;;;;-3.68;71.01;93151.53;2054933;69;20170;-77
2023/12/03 08:30:44;;;;;;;49.97;21.38;;;;;;;-3.38;72.38;93153.63;2051805;70;20567;-78
2023/12/03 08:33:09;;;;;;;45.70;21.45;;;;;;;-2.71;73.81;93153.13;2054944;70;20245;-86
2023/12/03 08:35:35;;;;;;;43.63;20.27;;;;;;;-2.25;72.93;93164.50;2054997;70;20257;-85
2023/12/03 08:38:01;;;;;;;39.47;19.73;;;;;;;-2.14;71.11;93167.16;2055041;70;20146;-82
2023/12/03 08:40:26;;;;;;;37.90;17.98;;;;;;;-1.69;72.84;93161.91;2055179;70;20146;-84
2023/12/03 08:42:52;;;;;;;32.00;17.10;;;;;;;-1.49;71.63;93168.94;2055114;70;20601;-84
2023/12/03 08:45:18;;;;;;;32.72;17.73;;;;;;;-1.12;71.80;93154.38;2055058;70;20165;-87
2023/12/03 08:47:43;;;;;;;34.70;19.60;;;;;;;-1.10;69.85;93162.13;2055215;70;20162;-77
2023/12/03 08:50:09;;;;;;;39.05;22.00;;;;;;;-0.80;69.77;93153.66;2054962;70;20145;-79
2023/12/03 08:52:35;;;;;;;35.60;19.33;;;;;;;-0.50;69.15;93161.72;2051505;70;20161;-79
2023/12/03 08:55:02;;;;;;;33.13;19.63;;;;;;;-0.24;68.33;93160.28;2055129;70;20169;-82
2023/12/03 08:57:28;;;;;;;34.35;19.48;;;;;;;0.09;67.76;93156.94;2055135;70;20162;-82
2023/12/03 08:59:54;;;;;;;41.60;24.25;;;;;;;0.38;67.18;93163.41;2054948;70;20142;-83
2023/12/03 09:02:20;;;;;;;42.92;23.23;;;;;;;0.53;66.07;93162.13;2054853;70;20153;-81
2023/12/03 09:04:45;;;;;;;29.92;15.23;;;;;;;0.74;67.24;93165.72;2054944;70;20150;-81
2023/12/03 09:07:11;;;;;;;26.13;14.82;;;;;;;0.71;65.00;93166.78;2055021;70;20149;-83
2023/12/03 09:09:37;;;;;;;20.35;11.82;;;;;;;0.68;64.17;93146.41;2054886;70;20157;-82
2023/12/03 09:12:03;;;;;;;26.23;14.23;;;;;;;0.92;65.63;93166.88;2055170;70;20158;-83
2023/12/03 09:14:29;;;;;;;24.60;14.35;;;;;;;0.59;63.09;93160.72;2055213;70;20153;-86
2023/12/03 09:16:55;;;;;;;25.58;14.25;;;;;;;0.99;63.52;93168.97;2055310;70;20181;-85
2023/12/03 09:19:20;;;;;;;22.98;13.73;;;;;;;1.19;63.50;93173.06;2055001;70;20154;-86
2023/12/03 09:21:46;;;;;;;26.65;14.07;;;;;;;1.40;64.21;93167.53;2054989;70;20158;-81
2023/12/03 09:24:15;;;;;;;25.83;15.10;;;;;;;1.17;63.03;93173.59;2054836;70;20149;-84
2023/12/03 09:26:43;;;;;;;24.17;14.52;;;;;;;1.49;62.00;93167.06;2054862;70;20245;-81
2023/12/03 09:29:11;;;;;;;23.60;13.15;;;;;;;1.98;61.07;93171.94;2054937;70;20173;-82
2023/12/03 09:31:39;;;;;;;22.40;12.80;;;;;;;2.49;60.76;93174.88;2054979;70;20174;-82
2023/12/03 09:34:06;;;;;;;17.77;10.82;;;;;;;2.17;61.75;93161.34;2054842;70;20130;-81
2023/12/03 09:36:33;;;;;;;18.27;10.23;;;;;;;2.52;59.81;93173.03;2054807;70;20220;-81
2023/12/03 09:38:59;;;;;;;15.13;9.52;;;;;;;2.89;60.68;93171.00;2051501;70;20183;-80
2023/12/03 09:41:26;;;;;;;17.73;9.27;;;;;;;3.05;58.18;93159.38;2054943;70;20130;-82
2023/12/03 09:43:59;;;;;;;12.40;8.82;;;;;;;3.56;57.66;93161.38;2051580;70;20158;-80
2023/12/03 09:46:28;;;;;;;;;;;;;;;2.62;56.11;93171.25;2057215;70;20289;-79
2023/12/03 09:48:57;;;;;;;16.52;10.50;;;;;;;2.01;57.98;93162.50;2059893;70;20054;-82
2023/12/03 09:51:23;;;;;;;16.35;9.88;;;;;;;2.42;57.08;93164.44;2059449;70;20138;-80
2023/12/03 09:53:50;;;;;;;16.30;10.15;;;;;;;2.71;57.56;93164.44;2058520;69;20146;-80
2023/12/03 09:56:16;;;;;;;24.05;13.57;;;;;;;3.41;56.74;93155.03;2059404;70;20182;-82
2023/12/03 09:58:44;;;;;;;18.60;11.63;;;;;;;3.25;55.56;93160.56;2057668;70;20142;-83
2023/12/03 10:01:10;;;;;;;13.45;8.95;;;;;;;4.40;55.52;93162.66;2060884;70;20177;-79
2023/12/03 10:03:36;;;;;;;11.82;8.02;;;;;;;4.76;53.76;93154.03;2060537;69;20150;-81
2023/12/03 10:06:04;;;;;;;14.45;8.52;;;;;;;3.29;53.92;93160.19;2054587;70;20157;-78
2023/12/03 10:08:32;;;;;;;13.35;8.73;;;;;;;3.86;54.01;93161.97;2060961;69;20154;-82
2023/12/03 10:11:02;;;;;;;12.90;7.75;;;;;;;4.02;54.71;93152.31;2061109;69;20207;-81
2023/12/03 10:13:29;;;;;;;16.60;6.85;;;;;;;5.48;52.89;93156.16;2060506;70;20169;-80
2023/12/03 10:15:56;;;;;;;12.65;8.02;;;;;;;3.45;51.85;93152.63;2061155;69;20142;-80
2023/12/03 10:18:22;;;;;;;15.45;8.07;;;;;;;4.04;52.95;93158.81;2058167;70;20149;-81
2023/12/03 10:20:48;;;;;;;15.43;8.07;;;;;;;5.31;52.47;93158.84;2057694;70;20146;-80
2023/12/03 10:23:15;;;;;;;14.57;8.88;;;;;;;5.71;49.79;93163.69;2060194;70;20140;-80
2023/12/03 10:25:41;;;;;;;19.95;10.35;;;;;;;6.86;49.82;93163.47;2056387;70;20582;-80
2023/12/03 10:28:08;;;;;;;28.88;16.67;;;;;;;8.29;46.78;93169.84;2060912;70;20165;-81
2023/12/03 10:30:35;;;;;;;15.40;10.32;;;;;;;8.43;46.52;93167.41;2060970;70;20178;-79
2023/12/03 10:33:01;;;;;;;18.08;11.75;;;;;;;8.63;44.93;93165.38;2061627;70;20098;-82
2023/12/03 10:35:32;;;;;;;18.35;12.68;;;;;;;10.02;44.40;93162.06;2054502;70;20162;-84
2023/12/03 10:37:58;;;;;;;11.77;7.15;;;;;;;9.67;43.61;93162.47;2054782;70;20135;-81
2023/12/03 10:40:25;;;;;;;10.32;6.80;;;;;;;7.45;43.01;93168.22;2054934;70;20143;-82
2023/12/03 10:42:50;;;;;;;9.77;6.88;;;;;;;6.55;45.57;93158.22;2054200;70;20150;-81
2023/12/03 10:45:16;;;;;;;10.50;7.47;;;;;;;9.24;42.07;93169.88;2054884;70;20134;-81
2023/12/03 10:47:43;;;;;;;10.43;6.95;;;;;;;9.51;41.19;93152.13;2052203;70;20166;-80
2023/12/03 10:50:11;;;;;;;9.75;7.00;;;;;;;10.88;42.07;93148.22;2054443;70;20190;-80
2023/12/03 10:52:39;;;;;;;10.38;7.88;;;;;;;11.60;39.84;93148.69;2054959;70;20157;-81
2023/12/03 10:55:06;;;;;;;11.90;7.57;;;;;;;13.26;37.75;93144.66;2053905;70;20142;-82
2023/12/03 10:57:34;;;;;;;8.35;6.45;;;;;;;14.30;35.62;93142.69;2052107;70;20143;-79
2023/12/03 11:00:09;;;;;;;9.75;6.70;;;;;;;15.87;35.50;93145.06;2054548;70;20119;-80
2023/12/03 11:02:45;;;;;;;5.95;5.15;;;;;;;15.72;34.50;93149.31;2053507;70;20674;-83
2023/12/03 11:05:25;;;;;;;5.90;4.20;;;;;;;16.30;33.84;93147.06;2052746;70;20253;-83
2023/12/03 11:07:51;;;;;;;7.05;4.47;;;;;;;14.40;33.15;93145.34;2048342;70;20273;-82
2023/12/03 11:10:17;;;;;;;7.53;5.75;;;;;;;12.93;34.32;93146.28;2048760;70;20767;-84
2023/12/03 11:12:43;;;;;;;11.18;5.55;;;;;;;10.27;37.60;93130.78;2048655;70;20135;-80
2023/12/03 11:15:09;;;;;;;8.73;5.78;;;;;;;9.18;38.61;93126.56;2048647;70;20237;-84
2023/12/03 11:17:44;;;;;;;10.40;7.55;;;;;;;7.93;41.52;93131.31;2045667;70;20173;-78
2023/12/03 11:20:22;;;;;;;13.93;9.30;;;;;;;6.85;42.61;93117.97;2048962;70;20142;-86
2023/12/03 11:23:13;;;;;;;15.68;11.10;;;;;;;6.07;43.89;93107.38;2048242;70;20230;-83